Time;durP1;ratioP1;P1;durP2;ratioP2;P2;SDS_P1;SDS_P2;PMS_P1;PMS_P2;Temp;Humidity;BMP_temperature;BMP_pressure;BME280_temperature;BME280_humidity;BME280_pressure;Samples;Min_cycle;Max_cycle;Signal;HPM_P1;HPM_P2
2023/06/30 00:02:22;;;;;;;0.10;0.10;;;15.10;60.60;;;;;;5063871;28;20551;-58
2023/06/30 00:04:53;;;;;;;0.10;0.10;;;15.10;60.60;;;;;;5066287;28;20559;-52
2023/06/30 00:07:23;;;;;;;0.10;0.10;;;15.10;60.60;;;;;;5077247;28;20198;-51
2023/06/30 00:09:56;;;;;;;0.10;0.10;;;15.10;60.60;;;;;;5058181;28;20242;-52
2023/06/30 00:12:27;;;;;;;0.10;0.10;;;15.00;60.50;;;;;;5056580;28;20210;-51
2023/06/30 00:14:57;;;;;;;0.10;0.10;;;15.00;60.50;;;;;;5056640;28;20604;-57
2023/06/30 00:17:28;;;;;;;0.10;0.10;;;15.00;60.60;;;;;;5076905;28;20664;-50
2023/06/30 00:19:59;;;;;;;0.10;0.10;;;15.00;60.60;;;;;;5057015;28;20586;-58
2023/06/30 00:22:37;;;;;;;0.10;0.10;;;15.00;60.70;;;;;;5056992;28;20251;-55
2023/06/30 00:25:10;;;;;;;0.10;0.10;;;15.00;60.70;;;;;;5056943;28;20230;-51
2023/06/30 00:27:40;;;;;;;0.10;0.10;;;15.00;60.70;;;;;;5056849;28;20195;-53
2023/06/30 00:30:12;;;;;;;0.10;0.10;;;15.00;60.80;;;;;;5048354;28;20191;-55
2023/06/30 00:32:42;;;;;;;0.10;0.10;;;15.00;61.00;;;;;;5056273;28;20699;-52
2023/06/30 00:35:13;;;;;;;0.10;0.10;;;15.00;61.00;;;;;;5075389;28;20198;-48
2023/06/30 00:37:44;;;;;;;0.10;0.10;;;15.00;61.20;;;;;;5076569;28;20210;-57
2023/06/30 00:40:17;;;;;;;0.10;0.10;;;15.00;61.40;;;;;;5056077;28;20206;-49
2023/06/30 00:42:48;;;;;;;0.10;0.10;;;15.00;61.70;;;;;;5056609;28;20227;-48
2023/06/30 00:45:18;;;;;;;0.10;0.10;;;15.00;62.10;;;;;;5036473;28;20203;-56
2023/06/30 00:47:49;;;;;;;0.10;0.10;;;15.10;62.50;;;;;;5054118;28;20214;-56
2023/06/30 00:50:20;;;;;;;0.10;0.10;;;15.10;63.00;;;;;;5036804;28;20188;-57
2023/06/30 00:52:51;;;;;;;0.10;0.10;;;15.10;63.20;;;;;;5043282;28;20207;-57
2023/06/30 00:55:24;;;;;;;0.10;0.10;;;15.10;63.10;;;;;;5036276;28;20202;-54
2023/06/30 00:57:54;;;;;;;0.10;0.10;;;15.20;62.80;;;;;;5036776;28;20526;-52
2023/06/30 01:00:25;;;;;;;0.10;0.10;;;15.20;62.50;;;;;;5037233;28;20200;-57
2023/06/30 01:03:03;;;;;;;0.10;0.10;;;15.20;62.40;;;;;;5035679;28;20219;-53
2023/06/30 01:05:41;;;;;;;0.10;0.10;;;15.20;63.10;;;;;;5060217;28;20199;-56
2023/06/30 01:08:19;;;;;;;0.10;0.10;;;15.20;66.40;;;;;;5071852;28;20194;-56
2023/06/30 01:10:53;;;;;;;0.10;0.10;;;15.30;67.60;;;;;;5053621;28;20226;-55
2023/06/30 01:13:24;;;;;;;0.10;0.10;;;15.40;69.40;;;;;;5053093;28;20195;-53
2023/06/30 01:15:57;;;;;;;0.08;0.08;;;15.50;70.80;;;;;;5052595;28;20198;-55
2023/06/30 01:18:36;;;;;;;0.10;0.10;;;15.50;70.60;;;;;;5053408;28;20195;-54
2023/06/30 01:21:08;;;;;;;0.10;0.10;;;15.60;70.80;;;;;;5053162;28;20654;-58
2023/06/30 01:23:43;;;;;;;0.10;0.10;;;15.60;70.00;;;;;;5054168;28;20195;-57
2023/06/30 01:26:16;;;;;;;0.10;0.10;;;15.70;68.10;;;;;;5053264;28;20203;-55
2023/06/30 01:28:47;;;;;;;0.10;0.10;;;15.70;66.70;;;;;;5053731;28;20200;-57
2023/06/30 01:31:18;;;;;;;0.10;0.10;;;15.70;66.10;;;;;;5052625;28;20231;-57
2023/06/30 01:33:49;;;;;;;0.10;0.10;;;15.70;65.70;;;;;;5053666;28;20199;-57
2023/06/30 01:36:20;;;;;;;0.10;0.10;;;15.70;64.70;;;;;;5072977;28;20282;-52
2023/06/30 01:38:50;;;;;;;0.10;0.10;;;15.80;64.10;;;;;;5059058;28;20179;-53
2023/06/30 01:41:23;;;;;;;0.10;0.10;;;15.70;64.30;;;;;;5062500;28;20234;-51
2023/06/30 01:43:54;;;;;;;0.10;0.10;;;15.80;66.20;;;;;;5067509;28;20194;-49
2023/06/30 01:46:25;;;;;;;0.10;0.10;;;15.80;68.20;;;;;;5053002;28;20215;-57
2023/06/30 01:48:56;;;;;;;0.10;0.10;;;15.90;69.30;;;;;;5052585;28;20195;-57
2023/06/30 01:51:27;;;;;;;0.15;0.15;;;16.00;68.60;;;;;;5052349;28;20683;-52
2023/06/30 01:53:58;;;;;;;0.10;0.10;;;16.00;67.70;;;;;;5052252;28;20203;-55
2023/06/30 01:56:30;;;;;;;0.10;0.10;;;16.10;69.10;;;;;;5051463;28;20203;-54
2023/06/30 01:59:01;;;;;;;0.10;0.10;;;16.20;69.70;;;;;;5049919;28;20278;-56
2023/06/30 02:01:32;;;;;;;0.10;0.10;;;16.20;69.70;;;;;;5052434;28;20226;-55
2023/06/30 02:04:02;;;;;;;0.10;0.10;;;16.30;69.80;;;;;;5052459;28;20211;-57
2023/06/30 02:06:33;;;;;;;0.10;0.10;;;16.30;69.10;;;;;;5052583;28;20196;-58
2023/06/30 02:09:04;;;;;;;0.13;0.13;;;16.30;68.20;;;;;;5052568;28;20195;-55
2023/06/30 02:11:36;;;;;;;0.10;0.10;;;16.40;67.60;;;;;;5052403;28;20223;-56
2023/06/30 02:14:07;;;;;;;0.10;0.10;;;16.40;67.00;;;;;;5051585;28;20188;-55
2023/06/30 02:16:38;;;;;;;0.10;0.10;;;16.40;66.40;;;;;;5052224;28;20199;-54
2023/06/30 02:19:09;;;;;;;0.10;0.10;;;16.40;65.20;;;;;;5051948;28;20209;-51
2023/06/30 02:21:40;;;;;;;0.10;0.10;;;16.50;64.30;;;;;;5052157;28;20256;-54
2023/06/30 02:24:11;;;;;;;0.10;0.10;;;16.40;63.10;;;;;;5052145;28;20192;-53
2023/06/30 02:26:44;;;;;;;0.10;0.10;;;16.40;62.00;;;;;;5051258;28;20648;-50
2023/06/30 02:29:14;;;;;;;0.10;0.10;;;16.40;61.30;;;;;;5052829;28;20593;-52
2023/06/30 02:31:45;;;;;;;0.10;0.10;;;16.30;60.80;;;;;;5052241;28;20227;-53
2023/06/30 02:34:16;;;;;;;0.10;0.10;;;16.30;60.60;;;;;;5054400;28;20199;-55
2023/06/30 02:36:48;;;;;;;0.10;0.10;;;16.30;60.40;;;;;;5061152;28;20678;-52
2023/06/30 02:39:18;;;;;;;0.00;0.00;;;16.30;60.00;;;;;;5051351;28;20218;-50
2023/06/30 02:41:51;;;;;;;0.10;0.10;;;16.30;60.00;;;;;;5042179;28;20211;-47
2023/06/30 02:44:22;;;;;;;0.10;0.10;;;16.20;59.80;;;;;;5042127;28;20193;-49
2023/06/30 02:46:52;;;;;;;0.10;0.10;;;16.20;59.70;;;;;;5046143;28;20195;-52
2023/06/30 02:49:23;;;;;;;0.10;0.10;;;16.20;59.70;;;;;;5051437;28;20202;-53
2023/06/30 02:51:53;;;;;;;0.00;0.00;;;16.10;59.60;;;;;;5051777;28;20230;-55
2023/06/30 02:54:24;;;;;;;0.10;0.10;;;16.10;59.60;;;;;;5050717;28;20196;-50
2023/06/30 02:56:57;;;;;;;0.10;0.10;;;16.10;59.50;;;;;;5051301;28;20188;-50
2023/06/30 02:59:27;;;;;;;0.10;0.10;;;16.10;59.40;;;;;;5050940;28;20191;-56
2023/06/30 03:01:58;;;;;;;0.10;0.10;;;16.00;59.20;;;;;;5050399;28;20218;-57
2023/06/30 03:04:29;;;;;;;0.10;0.10;;;16.00;59.10;;;;;;5055679;28;20289;-55
2023/06/30 03:07:00;;;;;;;0.10;0.10;;;16.00;59.10;;;;;;5070098;28;20654;-56
2023/06/30 03:09:30;;;;;;;0.10;0.10;;;15.90;59.00;;;;;;5071236;28;20194;-57
2023/06/30 03:12:03;;;;;;;0.10;0.10;;;15.90;59.00;;;;;;5059261;28;20913;-56
2023/06/30 03:14:34;;;;;;;0.10;0.10;;;15.90;59.00;;;;;;5051896;28;20195;-55
2023/06/30 03:17:04;;;;;;;0.10;0.10;;;15.80;59.00;;;;;;5051642;28;20199;-55
2023/06/30 03:19:35;;;;;;;0.10;0.10;;;15.80;59.10;;;;;;5050751;28;20202;-49
2023/06/30 03:22:06;;;;;;;0.10;0.10;;;15.80;59.10;;;;;;5051458;28;20216;-56
2023/06/30 03:24:36;;;;;;;0.10;0.10;;;15.70;59.00;;;;;;5050759;28;20199;-56
2023/06/30 03:27:09;;;;;;;0.10;0.10;;;15.70;59.10;;;;;;5048907;28;20229;-52
2023/06/30 03:29:40;;;;;;;0.10;0.10;;;15.80;59.20;;;;;;5050613;28;20206;-55
2023/06/30 03:32:11;;;;;;;0.10;0.10;;;15.70;59.10;;;;;;5051308;28;20231;-51
2023/06/30 03:34:41;;;;;;;0.10;0.10;;;15.70;59.10;;;;;;5053506;28;20218;-54
2023/06/30 03:37:12;;;;;;;0.10;0.10;;;15.70;59.20;;;;;;5050909;28;20191;-56
2023/06/30 03:39:43;;;;;;;0.10;0.10;;;15.70;59.20;;;;;;5049947;28;20191;-54
2023/06/30 03:42:15;;;;;;;0.13;0.13;;;15.60;59.30;;;;;;5050698;28;20216;-52
2023/06/30 03:44:46;;;;;;;0.17;0.17;;;15.60;59.30;;;;;;5050956;28;20199;-54
2023/06/30 03:47:17;;;;;;;0.10;0.10;;;15.60;59.30;;;;;;5050520;28;20286;-56
2023/06/30 03:49:47;;;;;;;0.10;0.10;;;15.60;59.30;;;;;;5050235;28;20199;-56
2023/06/30 03:52:18;;;;;;;0.13;0.13;;;15.50;59.20;;;;;;5050229;28;20227;-54
2023/06/30 03:54:49;;;;;;;0.10;0.10;;;15.50;59.20;;;;;;5051131;28;20567;-53
2023/06/30 03:57:21;;;;;;;0.15;0.15;;;15.50;59.20;;;;;;5049812;28;20194;-54
2023/06/30 03:59:52;;;;;;;0.10;0.10;;;15.50;59.10;;;;;;5051176;28;20195;-56
2023/06/30 04:02:22;;;;;;;0.10;0.10;;;15.50;59.10;;;;;;5050793;28;20238;-57
2023/06/30 04:04:53;;;;;;;0.10;0.10;;;15.50;59.00;;;;;;5059203;28;20199;-56
2023/06/30 04:07:24;;;;;;;0.10;0.10;;;15.40;59.00;;;;;;5060268;28;20187;-56
2023/06/30 04:09:54;;;;;;;0.10;0.10;;;15.40;59.00;;;;;;5049625;28;20563;-58
2023/06/30 04:12:27;;;;;;;0.15;0.15;;;15.40;59.40;;;;;;5066059;28;20237;-59
2023/06/30 04:14:58;;;;;;;0.10;0.10;;;15.40;59.50;;;;;;5069012;28;20199;-59
2023/06/30 04:17:28;;;;;;;0.10;0.10;;;15.40;59.30;;;;;;5059491;28;20183;-57
2023/06/30 04:19:59;;;;;;;0.10;0.10;;;15.40;59.20;;;;;;5049964;28;20194;-60
2023/06/30 04:22:30;;;;;;;0.10;0.10;;;15.40;59.20;;;;;;5050471;28;20210;-59
2023/06/30 04:25:00;;;;;;;0.10;0.10;;;15.30;59.70;;;;;;5051297;28;20199;-59
2023/06/30 04:27:33;;;;;;;0.10;0.10;;;15.40;59.10;;;;;;5050392;28;20201;-52
2023/06/30 04:30:04;;;;;;;0.10;0.10;;;15.40;59.00;;;;;;5050071;28;20195;-51
2023/06/30 04:32:34;;;;;;;0.10;0.10;;;15.40;59.00;;;;;;5049660;28;20700;-49
2023/06/30 04:35:05;;;;;;;0.10;0.10;;;15.40;59.00;;;;;;5060452;28;20544;-55
2023/06/30 04:37:40;;;;;;;0.10;0.10;;;15.40;59.00;;;;;;5060201;28;20191;-56
2023/06/30 04:40:11;;;;;;;0.10;0.10;;;15.40;59.00;;;;;;5053731;28;20234;-57
2023/06/30 04:42:47;;;;;;;0.00;0.00;;;15.40;59.20;;;;;;5053584;28;20574;-54
2023/06/30 04:45:18;;;;;;;0.10;0.10;;;15.40;59.10;;;;;;5054244;28;20248;-55
2023/06/30 04:47:48;;;;;;;0.10;0.10;;;15.40;59.00;;;;;;5053201;28;20187;-55
2023/06/30 04:50:21;;;;;;;0.00;0.00;;;15.50;58.80;;;;;;5054063;28;20199;-53
2023/06/30 04:52:51;;;;;;;0.00;0.00;;;15.50;58.60;;;;;;5053679;28;20231;-50
2023/06/30 04:55:22;;;;;;;0.10;0.10;;;15.50;58.40;;;;;;5053680;28;20195;-53
2023/06/30 04:57:56;;;;;;;0.10;0.10;;;15.50;58.20;;;;;;5053633;28;20210;-55
2023/06/30 05:00:27;;;;;;;0.10;0.10;;;15.50;58.60;;;;;;5053568;28;20200;-56
2023/06/30 05:02:58;;;;;;;0.10;0.10;;;15.50;57.90;;;;;;5053256;28;20218;-58
2023/06/30 05:05:28;;;;;;;0.10;0.10;;;15.40;57.60;;;;;;5066300;28;20563;-60
2023/06/30 05:07:59;;;;;;;0.10;0.10;;;15.40;57.60;;;;;;5060754;28;20207;-57
2023/06/30 05:10:30;;;;;;;0.10;0.10;;;15.40;57.50;;;;;;5053035;28;20191;-58
2023/06/30 05:13:02;;;;;;;0.10;0.10;;;15.40;57.50;;;;;;5053000;28;20230;-55
2023/06/30 05:15:33;;;;;;;0.10;0.10;;;15.30;57.40;;;;;;5053391;28;20206;-52
2023/06/30 05:18:05;;;;;;;0.00;0.00;;;15.30;57.50;;;;;;5053087;28;20195;-53
2023/06/30 05:20:39;;;;;;;0.10;0.10;;;15.30;57.50;;;;;;5052982;28;20289;-57
2023/06/30 05:23:09;;;;;;;0.10;0.10;;;15.30;57.60;;;;;;5060002;28;20685;-55
2023/06/30 05:25:40;;;;;;;0.10;0.10;;;15.30;57.60;;;;;;5073414;28;20199;-55
2023/06/30 05:28:12;;;;;;;0.10;0.10;;;15.20;57.60;;;;;;5069092;28;20187;-58
2023/06/30 05:30:43;;;;;;;0.10;0.10;;;15.20;57.90;;;;;;5070551;28;20222;-50
2023/06/30 05:33:14;;;;;;;0.10;0.10;;;15.20;58.40;;;;;;5051809;28;20701;-54
2023/06/30 05:35:44;;;;;;;0.10;0.10;;;15.20;58.70;;;;;;5068426;28;20658;-49
2023/06/30 05:38:15;;;;;;;0.10;0.10;;;15.20;59.00;;;;;;5059157;28;20200;-51
2023/06/30 05:40:46;;;;;;;0.10;0.10;;;15.20;59.20;;;;;;5033058;28;20505;-54
2023/06/30 05:43:19;;;;;;;0.10;0.10;;;15.30;59.50;;;;;;5051266;28;20195;-51
2023/06/30 05:45:50;;;;;;;0.10;0.10;;;15.30;59.70;;;;;;5070729;28;20252;-52
2023/06/30 05:48:21;;;;;;;0.10;0.10;;;15.30;59.70;;;;;;5059445;28;20512;-53
2023/06/30 05:50:52;;;;;;;0.10;0.10;;;15.30;59.80;;;;;;5061219;28;20655;-53
2023/06/30 05:53:23;;;;;;;0.08;0.08;;;15.40;60.10;;;;;;5059958;28;20219;-53
2023/06/30 05:55:55;;;;;;;0.10;0.10;;;15.40;60.10;;;;;;5057400;28;20256;-54
2023/06/30 05:58:28;;;;;;;0.10;0.10;;;15.40;61.00;;;;;;5067302;28;20206;-47
2023/06/30 06:00:58;;;;;;;0.10;0.10;;;15.40;60.20;;;;;;5071125;28;20206;-52
2023/06/30 06:03:30;;;;;;;0.00;0.00;;;15.50;60.40;;;;;;5048978;28;20191;-55
2023/06/30 06:06:01;;;;;;;0.10;0.10;;;15.50;60.60;;;;;;5072100;28;20248;-52
2023/06/30 06:08:31;;;;;;;0.15;0.15;;;15.50;60.70;;;;;;5066054;28;20206;-53
2023/06/30 06:11:02;;;;;;;0.10;0.10;;;15.50;60.70;;;;;;5071811;28;20645;-51
2023/06/30 06:13:38;;;;;;;0.10;0.10;;;15.50;60.60;;;;;;5069268;28;20230;-53
2023/06/30 06:16:10;;;;;;;0.10;0.10;;;15.60;60.70;;;;;;5072602;28;20198;-52
2023/06/30 06:18:41;;;;;;;0.10;0.10;;;15.60;60.70;;;;;;5063685;28;20234;-53
2023/06/30 06:21:11;;;;;;;0.10;0.10;;;15.60;60.70;;;;;;5061215;28;20215;-52
2023/06/30 06:23:42;;;;;;;0.10;0.10;;;15.60;60.70;;;;;;5052845;28;20198;-53
2023/06/30 06:26:13;;;;;;;0.00;0.00;;;15.60;60.70;;;;;;5071718;28;20586;-50
2023/06/30 06:28:45;;;;;;;0.00;0.00;;;15.60;60.60;;;;;;5057713;28;20659;-52
2023/06/30 06:31:16;;;;;;;0.10;0.10;;;15.60;60.70;;;;;;5051100;28;20215;-54
2023/06/30 06:33:46;;;;;;;0.10;0.10;;;15.60;60.70;;;;;;5051900;28;20229;-52
2023/06/30 06:36:17;;;;;;;0.10;0.10;;;15.60;60.70;;;;;;5071413;28;20198;-50
2023/06/30 06:38:48;;;;;;;0.03;0.03;;;15.60;60.70;;;;;;5056830;28;20191;-51
2023/06/30 06:41:18;;;;;;;0.10;0.10;;;15.60;60.70;;;;;;5050707;28;20618;-55
2023/06/30 06:43:51;;;;;;;0.10;0.10;;;15.60;60.80;;;;;;5051301;28;20191;-55
2023/06/30 06:46:21;;;;;;;0.10;0.10;;;15.60;60.80;;;;;;5050568;28;20272;-53
2023/06/30 06:48:52;;;;;;;0.10;0.10;;;15.70;60.90;;;;;;5051754;28;20199;-54
2023/06/30 06:51:23;;;;;;;0.10;0.10;;;15.70;60.90;;;;;;5051927;28;20565;-52
2023/06/30 06:53:55;;;;;;;0.10;0.10;;;15.70;61.00;;;;;;5050677;28;20226;-49
2023/06/30 06:56:26;;;;;;;0.10;0.10;;;15.70;60.90;;;;;;5050730;28;20561;-51
2023/06/30 06:58:59;;;;;;;0.00;0.00;;;15.70;60.90;;;;;;5051056;28;20191;-54
2023/06/30 07:01:30;;;;;;;0.10;0.10;;;15.60;60.80;;;;;;5050991;28;20222;-53
2023/06/30 07:04:00;;;;;;;0.10;0.10;;;15.60;60.90;;;;;;5052073;28;20198;-48
2023/06/30 07:06:31;;;;;;;0.00;0.00;;;15.60;60.80;;;;;;5071250;28;20206;-47
2023/06/30 07:09:02;;;;;;;0.10;0.10;;;15.60;60.80;;;;;;5056913;28;20605;-48
2023/06/30 07:11:32;;;;;;;0.10;0.10;;;15.60;60.80;;;;;;5050825;28;20237;-48
2023/06/30 07:14:05;;;;;;;0.10;0.10;;;15.60;60.80;;;;;;5051256;28;20687;-47
2023/06/30 07:16:35;;;;;;;0.10;0.10;;;15.60;60.80;;;;;;5046938;28;20199;-50
2023/06/30 07:19:06;;;;;;;0.10;0.10;;;15.60;60.90;;;;;;5045388;28;20540;-52
2023/06/30 07:21:36;;;;;;;0.10;0.10;;;15.60;60.90;;;;;;5051228;28;20627;-53
2023/06/30 07:24:07;;;;;;;0.10;0.10;;;15.60;61.00;;;;;;5050739;28;20237;-51
2023/06/30 07:26:38;;;;;;;0.10;0.10;;;15.60;60.90;;;;;;5050923;28;20598;-48
2023/06/30 07:29:10;;;;;;;0.20;0.20;;;15.60;61.00;;;;;;5051537;28;20725;-47
2023/06/30 07:31:41;;;;;;;0.10;0.10;;;15.60;61.00;;;;;;5050782;28;20222;-49
2023/06/30 07:34:11;;;;;;;0.10;0.10;;;15.60;61.10;;;;;;5054074;28;20339;-46
2023/06/30 07:36:42;;;;;;;0.00;0.00;;;15.60;61.10;;;;;;5051278;28;20254;-53
2023/06/30 07:39:12;;;;;;;0.08;0.08;;;15.60;61.00;;;;;;5051419;28;20203;-46
2023/06/30 07:41:43;;;;;;;0.10;0.10;;;15.60;61.10;;;;;;5051257;28;20216;-47
2023/06/30 07:44:15;;;;;;;0.10;0.10;;;15.60;61.10;;;;;;5051176;28;20196;-48
2023/06/30 07:46:46;;;;;;;0.10;0.10;;;15.60;61.10;;;;;;5050686;28;20575;-51
2023/06/30 07:49:17;;;;;;;0.10;0.10;;;15.60;61.10;;;;;;5051284;28;20191;-54
2023/06/30 07:51:47;;;;;;;0.10;0.10;;;15.60;61.20;;;;;;5050525;28;20241;-54
2023/06/30 07:54:19;;;;;;;0.03;0.03;;;15.60;61.20;;;;;;5051153;28;20679;-47
2023/06/30 07:56:50;;;;;;;0.03;0.03;;;15.60;61.20;;;;;;5051062;28;20730;-49
2023/06/30 07:59:22;;;;;;;0.10;0.10;;;15.60;61.20;;;;;;5051154;28;20226;-53
2023/06/30 08:01:53;;;;;;;0.10;0.10;;;15.60;61.20;;;;;;5050343;28;20272;-50
2023/06/30 08:04:24;;;;;;;0.10;0.10;;;15.60;61.20;;;;;;5053407;28;20252;-51
2023/06/30 08:06:54;;;;;;;0.10;0.10;;;15.60;61.20;;;;;;5070648;28;20191;-50
2023/06/30 08:09:25;;;;;;;0.10;0.10;;;15.60;61.20;;;;;;5070923;28;20198;-55
2023/06/30 08:11:57;;;;;;;0.10;0.10;;;15.50;61.20;;;;;;5071354;28;20219;-53
2023/06/30 08:14:29;;;;;;;0.20;0.20;;;15.50;61.20;;;;;;5071731;28;20869;-54
2023/06/30 08:17:00;;;;;;;0.10;0.10;;;15.50;61.20;;;;;;5054418;28;20199;-54
2023/06/30 08:19:30;;;;;;;0.10;0.10;;;15.50;61.20;;;;;;5055176;28;20690;-53
2023/06/30 08:22:02;;;;;;;0.20;0.20;;;15.50;61.30;;;;;;5055195;28;20219;-52
2023/06/30 08:24:32;;;;;;;0.10;0.10;;;15.50;61.30;;;;;;5054812;28;20218;-49
2023/06/30 08:27:04;;;;;;;0.10;0.10;;;15.50;61.20;;;;;;5054424;28;20260;-50
2023/06/30 08:29:36;;;;;;;0.10;0.10;;;15.50;61.30;;;;;;5054532;28;20203;-48
2023/06/30 08:32:08;;;;;;;0.10;0.10;;;15.50;61.30;;;;;;5054065;28;20682;-53
2023/06/30 08:34:39;;;;;;;0.10;0.10;;;15.50;61.30;;;;;;5060775;28;20637;-57
2023/06/30 08:37:09;;;;;;;0.10;0.10;;;15.50;61.30;;;;;;5065665;28;20191;-51
2023/06/30 08:39:40;;;;;;;0.10;0.10;;;15.40;61.20;;;;;;5054471;28;20196;-53
2023/06/30 08:42:13;;;;;;;0.10;0.10;;;15.50;61.30;;;;;;5054341;28;20223;-50
2023/06/30 08:44:49;;;;;;;0.10;0.10;;;15.50;61.30;;;;;;5054384;28;20732;-56
2023/06/30 08:47:23;;;;;;;0.10;0.10;;;15.50;61.30;;;;;;5053461;28;20582;-49
2023/06/30 08:49:53;;;;;;;0.10;0.10;;;15.50;61.40;;;;;;5054292;28;20199;-50
2023/06/30 08:52:25;;;;;;;0.10;0.10;;;15.50;61.40;;;;;;5054053;28;20219;-51
2023/06/30 08:54:56;;;;;;;0.10;0.10;;;15.50;61.40;;;;;;5053945;28;20273;-51
2023/06/30 08:57:27;;;;;;;0.10;0.10;;;15.50;61.40;;;;;;5053439;28;20200;-50
2023/06/30 08:59:59;;;;;;;0.10;0.10;;;15.40;61.40;;;;;;5053871;28;20196;-51
2023/06/30 09:02:31;;;;;;;0.10;0.10;;;15.40;61.40;;;;;;5054479;28;20219;-52
2023/06/30 09:05:03;;;;;;;0.10;0.10;;;15.40;61.40;;;;;;5063221;28;20256;-54
2023/06/30 09:07:41;;;;;;;0.10;0.10;;;15.40;61.40;;;;;;5067989;28;20207;-48
2023/06/30 09:10:13;;;;;;;0.10;0.10;;;15.40;61.40;;;;;;5071467;28;20202;-50
2023/06/30 09:12:46;;;;;;;0.10;0.10;;;15.40;61.50;;;;;;5052763;28;20219;-51
2023/06/30 09:15:21;;;;;;;0.10;0.10;;;15.40;61.50;;;;;;5069860;28;20643;-49
2023/06/30 09:17:53;;;;;;;0.10;0.10;;;15.40;61.60;;;;;;5062447;28;20202;-53
2023/06/30 09:20:24;;;;;;;0.10;0.10;;;15.40;61.50;;;;;;5071672;28;20244;-48
2023/06/30 09:22:54;;;;;;;0.08;0.08;;;15.40;61.50;;;;;;5057561;28;20222;-53
2023/06/30 09:25:44;;;;;;;0.10;0.10;;;15.40;61.60;;;;;;5058887;28;20249;-51
2023/06/30 09:28:16;;;;;;;0.10;0.10;;;15.40;61.70;;;;;;5052430;28;20200;-51
2023/06/30 09:30:51;;;;;;;0.20;0.20;;;15.40;61.70;;;;;;5052376;28;20191;-52
2023/06/30 09:33:22;;;;;;;0.00;0.00;;;15.40;61.80;;;;;;5053416;28;20254;-49
2023/06/30 09:35:53;;;;;;;0.10;0.10;;;15.40;61.80;;;;;;5064236;28;20566;-56
2023/06/30 09:38:23;;;;;;;0.10;0.10;;;15.40;61.90;;;;;;5053618;28;20191;-53
2023/06/30 09:40:54;;;;;;;0.10;0.10;;;15.40;61.90;;;;;;5052261;28;20725;-53
2023/06/30 09:43:26;;;;;;;0.10;0.10;;;15.40;61.90;;;;;;5052763;28;20249;-55
2023/06/30 09:46:03;;;;;;;0.10;0.10;;;15.40;61.90;;;;;;5052338;28;20245;-55
2023/06/30 09:48:34;;;;;;;0.00;0.00;;;15.40;61.80;;;;;;5053383;28;20256;-55
2023/06/30 09:51:09;;;;;;;0.10;0.10;;;15.40;61.80;;;;;;5052151;28;20258;-51
2023/06/30 09:53:41;;;;;;;0.10;0.10;;;15.40;61.90;;;;;;5052851;28;20761;-56
2023/06/30 09:56:13;;;;;;;0.10;0.10;;;15.40;61.90;;;;;;5051593;28;20192;-48
2023/06/30 09:58:44;;;;;;;0.10;0.10;;;15.40;61.80;;;;;;5052861;28;20202;-56
2023/06/30 10:01:20;;;;;;;0.10;0.10;;;15.40;61.90;;;;;;5064050;28;20211;-55
2023/06/30 10:03:52;;;;;;;0.10;0.10;;;15.40;61.90;;;;;;5052139;28;20283;-56
2023/06/30 10:06:25;;;;;;;0.10;0.10;;;15.40;61.90;;;;;;5060123;28;20654;-48
2023/06/30 10:08:58;;;;;;;0.10;0.10;;;15.40;61.80;;;;;;5051877;28;20196;-50
2023/06/30 10:11:30;;;;;;;0.08;0.08;;;15.40;61.80;;;;;;5052304;28;20215;-51
2023/06/30 10:14:03;;;;;;;0.10;0.10;;;15.40;61.90;;;;;;5049529;28;20219;-49
2023/06/30 10:16:35;;;;;;;0.10;0.10;;;15.40;62.00;;;;;;5051980;28;20246;-48
2023/06/30 10:19:07;;;;;;;0.10;0.10;;;15.30;62.00;;;;;;5051455;28;20248;-49
2023/06/30 10:21:38;;;;;;;0.00;0.00;;;15.40;62.20;;;;;;5051874;28;20223;-51
2023/06/30 10:24:10;;;;;;;0.10;0.10;;;15.40;62.30;;;;;;5052137;28;20269;-52
2023/06/30 10:26:42;;;;;;;0.10;0.10;;;15.40;62.30;;;;;;5051780;28;20213;-49
2023/06/30 10:29:13;;;;;;;0.10;0.10;;;15.40;62.30;;;;;;5051315;28;20687;-50
2023/06/30 10:31:46;;;;;;;0.10;0.10;;;15.40;62.20;;;;;;5051517;28;20211;-48
2023/06/30 10:34:17;;;;;;;0.10;0.10;;;15.40;62.20;;;;;;5055606;28;20226;-52
2023/06/30 10:36:48;;;;;;;0.10;0.10;;;15.40;62.20;;;;;;5062275;28;20195;-51
2023/06/30 10:39:19;;;;;;;0.10;0.10;;;15.40;62.20;;;;;;5043260;28;20652;-51
2023/06/30 10:41:51;;;;;;;0.00;0.00;;;15.40;62.20;;;;;;5043657;28;20216;-48
2023/06/30 10:44:22;;;;;;;0.10;0.10;;;15.40;62.10;;;;;;5037701;28;20187;-54
2023/06/30 10:46:59;;;;;;;0.10;0.10;;;15.40;62.10;;;;;;5042082;28;20207;-56
2023/06/30 10:49:32;;;;;;;0.10;0.10;;;15.30;62.10;;;;;;5071014;28;20205;-56
2023/06/30 10:52:03;;;;;;;0.10;0.10;;;15.40;62.20;;;;;;5063806;28;20223;-54
2023/06/30 10:54:40;;;;;;;0.10;0.10;;;15.40;62.20;;;;;;5069465;28;20231;-56
2023/06/30 10:57:14;;;;;;;0.17;0.17;;;15.40;62.20;;;;;;5059181;28;20710;-55
2023/06/30 10:59:45;;;;;;;0.10;0.10;;;15.40;62.10;;;;;;5050760;28;20588;-57
2023/06/30 11:02:24;;;;;;;0.10;0.10;;;15.40;62.20;;;;;;5056740;28;20628;-58
2023/06/30 11:04:55;;;;;;;0.05;0.05;;;15.30;62.10;;;;;;5059126;28;20204;-53
2023/06/30 11:07:30;;;;;;;0.10;0.10;;;15.40;62.10;;;;;;5058530;28;20191;-53
2023/06/30 11:10:03;;;;;;;0.13;0.13;;;15.30;62.10;;;;;;5052230;28;20199;-53
2023/06/30 11:12:54;;;;;;;0.10;0.10;;;15.30;62.10;;;;;;5057703;28;20578;-54
2023/06/30 11:15:48;;;;;;;0.10;0.10;;;15.30;62.90;;;;;;5051014;28;20230;-51
2023/06/30 11:18:23;;;;;;;0.15;0.15;;;15.30;62.20;;;;;;5051427;28;20183;-56
2023/06/30 11:21:03;;;;;;;0.10;0.10;;;15.30;62.00;;;;;;5051113;28;20515;-53
2023/06/30 11:23:36;;;;;;;0.10;0.10;;;15.30;62.10;;;;;;5069845;28;20194;-57
2023/06/30 11:26:18;;;;;;;0.05;0.05;;;15.30;62.10;;;;;;5061417;28;20192;-55
2023/06/30 11:28:49;;;;;;;0.10;0.10;;;15.30;62.10;;;;;;5040820;28;20192;-58
2023/06/30 11:31:20;;;;;;;0.10;0.10;;;15.30;62.10;;;;;;5042220;28;20270;-58
2023/06/30 11:33:53;;;;;;;0.05;0.05;;;15.30;62.00;;;;;;5041525;28;20573;-57
2023/06/30 11:36:24;;;;;;;0.10;0.10;;;15.30;62.10;;;;;;5042248;28;20540;-58
2023/06/30 11:38:54;;;;;;;0.10;0.10;;;15.30;62.10;;;;;;5041711;28;20180;-57
2023/06/30 11:41:25;;;;;;;0.10;0.10;;;15.30;62.10;;;;;;5040222;28;20211;-58
2023/06/30 11:43:57;;;;;;;0.10;0.10;;;15.30;62.10;;;;;;5042938;28;20203;-56
2023/06/30 11:46:35;;;;;;;0.10;0.10;;;15.30;62.10;;;;;;5050590;28;20651;-57
2023/06/30 11:49:08;;;;;;;0.10;0.10;;;15.30;62.20;;;;;;5050522;28;20195;-57
2023/06/30 11:51:39;;;;;;;0.10;0.10;;;15.30;62.10;;;;;;5051504;28;20223;-56
2023/06/30 11:54:10;;;;;;;0.10;0.10;;;15.30;62.20;;;;;;5051259;28;20254;-56
2023/06/30 11:56:43;;;;;;;0.10;0.10;;;15.30;62.20;;;;;;5051286;28;20554;-57
2023/06/30 11:59:13;;;;;;;0.10;0.10;;;15.30;62.10;;;;;;5050961;28;20203;-57
2023/06/30 12:01:44;;;;;;;0.20;0.20;;;15.30;62.20;;;;;;5050121;28;20553;-49
2023/06/30 12:04:36;;;;;;;0.10;0.10;;;15.20;62.10;;;;;;5050735;28;20644;-48
2023/06/30 12:07:07;;;;;;;0.10;0.10;;;15.30;62.20;;;;;;5050689;28;20431;-53
2023/06/30 12:09:40;;;;;;;0.10;0.10;;;15.30;62.10;;;;;;5051188;28;20682;-53
2023/06/30 12:12:11;;;;;;;0.10;0.10;;;15.30;62.10;;;;;;5050590;28;20687;-51
2023/06/30 12:14:45;;;;;;;0.20;0.20;;;15.30;62.10;;;;;;5051182;28;20312;-50
2023/06/30 12:17:15;;;;;;;0.10;0.10;;;15.20;62.00;;;;;;5051033;28;20579;-48
2023/06/30 12:19:52;;;;;;;0.10;0.10;;;15.20;62.00;;;;;;5051297;28;20199;-51
2023/06/30 12:22:29;;;;;;;0.10;0.10;;;15.20;62.00;;;;;;5051107;28;20250;-52
2023/06/30 12:25:00;;;;;;;0.13;0.13;;;15.30;62.10;;;;;;5051291;28;20199;-49
2023/06/30 12:27:34;;;;;;;0.10;0.10;;;15.20;62.00;;;;;;5050613;28;20192;-48
2023/06/30 12:30:05;;;;;;;0.10;0.10;;;15.20;62.00;;;;;;5050879;28;20204;-51
2023/06/30 12:32:40;;;;;;;0.20;0.20;;;15.20;62.00;;;;;;5050840;28;20216;-48
2023/06/30 12:35:13;;;;;;;0.10;0.10;;;15.20;62.00;;;;;;5061364;28;20225;-48
2023/06/30 12:37:46;;;;;;;0.10;0.10;;;15.20;62.10;;;;;;5070950;28;20203;-50
2023/06/30 12:40:16;;;;;;;0.10;0.10;;;15.20;62.00;;;;;;5070801;28;20194;-50
2023/06/30 12:42:50;;;;;;;0.10;0.10;;;15.20;62.10;;;;;;5070641;28;20260;-47
2023/06/30 12:45:20;;;;;;;0.10;0.10;;;15.20;62.00;;;;;;5070227;28;20190;-53
2023/06/30 12:47:51;;;;;;;0.10;0.10;;;15.20;62.10;;;;;;5070516;28;20588;-49
2023/06/30 12:50:23;;;;;;;0.10;0.10;;;15.20;62.10;;;;;;5070998;28;20615;-51
2023/06/30 12:52:54;;;;;;;0.08;0.08;;;15.10;62.00;;;;;;5070956;28;20214;-52
2023/06/30 12:55:25;;;;;;;0.00;0.00;;;15.20;62.00;;;;;;5070735;28;20227;-52
2023/06/30 12:57:56;;;;;;;0.10;0.10;;;15.20;62.00;;;;;;5070705;28;20194;-50
2023/06/30 13:00:26;;;;;;;0.10;0.10;;;15.10;61.90;;;;;;5074241;28;20195;-53
2023/06/30 13:02:57;;;;;;;0.05;0.05;;;15.20;62.00;;;;;;5074530;28;20215;-48
2023/06/30 13:05:30;;;;;;;0.10;0.10;;;15.10;62.00;;;;;;5074249;28;20271;-51
2023/06/30 13:08:00;;;;;;;0.10;0.10;;;15.10;61.90;;;;;;5074227;28;20195;-52
2023/06/30 13:10:31;;;;;;;0.10;0.10;;;15.10;61.90;;;;;;5074006;28;20199;-55
2023/06/30 13:13:01;;;;;;;0.10;0.10;;;15.10;61.90;;;;;;5073642;28;20214;-53